Time;durP1;ratioP1;P1;durP2;ratioP2;P2;SDS_P1;SDS_P2;PMS_P1;PMS_P2;Temp;Humidity;BMP_temperature;BMP_pressure;BME280_temperature;BME280_humidity;BME280_pressure;Samples;Min_cycle;Max_cycle;Signal;HPM_P1;HPM_P2
2023/11/27 00:01:08;;;;;;;26.27;13.13;;;4.40;99.90;;;;;;5047883;28;20578;-53
2023/11/27 00:03:38;;;;;;;26.57;13.97;;;4.40;99.90;;;;;;5045611;28;20221;-57
2023/11/27 00:06:09;;;;;;;21.93;13.37;;;4.40;99.90;;;;;;5046931;28;20220;-57
2023/11/27 00:08:38;;;;;;;31.33;14.80;;;4.40;99.90;;;;;;5037845;28;20217;-56
2023/11/27 00:11:07;;;;;;;28.93;14.87;;;4.30;99.90;;;;;;5050755;28;20222;-57
2023/11/27 00:13:35;;;;;;;30.77;15.43;;;4.30;99.90;;;;;;5043541;28;20652;-56
2023/11/27 00:16:04;;;;;;;25.87;16.10;;;4.30;99.90;;;;;;5045305;28;20267;-56
2023/11/27 00:18:32;;;;;;;26.53;16.03;;;4.30;99.90;;;;;;5044035;28;20217;-56
2023/11/27 00:21:01;;;;;;;39.30;17.77;;;4.30;99.90;;;;;;5037601;28;21078;-56
2023/11/27 00:23:30;;;;;;;36.77;17.80;;;4.30;99.90;;;;;;5045927;28;20228;-57
2023/11/27 00:25:59;;;;;;;35.47;17.17;;;4.30;99.90;;;;;;5045266;28;20572;-54
2023/11/27 00:28:27;;;;;;;42.50;18.10;;;4.20;99.90;;;;;;5044123;28;20193;-55
2023/11/27 00:30:55;;;;;;;32.50;17.60;;;4.20;99.90;;;;;;5041162;28;20224;-56
2023/11/27 00:33:24;;;;;;;36.10;17.73;;;4.20;99.90;;;;;;5043637;28;20214;-56
2023/11/27 00:35:52;;;;;;;40.43;18.33;;;4.20;99.90;;;;;;5050653;28;20220;-57
2023/11/27 00:38:20;;;;;;;38.80;18.70;;;4.20;99.90;;;;;;5039975;28;20892;-57
2023/11/27 00:40:50;;;;;;;36.93;18.23;;;4.20;99.90;;;;;;5043149;28;20544;-56
2023/11/27 00:43:18;;;;;;;37.27;18.23;;;4.20;99.90;;;;;;5044749;28;20642;-57
2023/11/27 00:45:46;;;;;;;37.30;18.80;;;4.20;99.90;;;;;;5045463;28;20643;-55
2023/11/27 00:48:15;;;;;;;36.70;17.63;;;4.20;99.90;;;;;;5041092;28;20220;-57
2023/11/27 00:50:43;;;;;;;36.73;18.40;;;4.20;99.90;;;;;;5040854;28;20219;-56
2023/11/27 00:53:11;;;;;;;39.70;18.70;;;4.20;99.90;;;;;;5048313;28;20676;-56
2023/11/27 00:55:40;;;;;;;37.43;19.27;;;4.20;99.90;;;;;;5047675;28;20631;-57
2023/11/27 00:58:09;;;;;;;36.17;18.67;;;4.20;99.90;;;;;;5041637;28;20225;-54
2023/11/27 01:00:38;;;;;;;31.83;17.73;;;4.20;99.90;;;;;;5045018;28;20217;-56
2023/11/27 01:03:06;;;;;;;35.47;19.17;;;4.20;99.90;;;;;;5044711;28;20229;-57
2023/11/27 01:05:35;;;;;;;38.07;20.13;;;4.20;99.90;;;;;;5046576;28;20303;-57
2023/11/27 01:08:04;;;;;;;35.73;18.63;;;4.10;99.90;;;;;;5043431;28;20222;-56
2023/11/27 01:10:32;;;;;;;40.00;20.10;;;4.10;99.90;;;;;;5046442;28;20199;-56
2023/11/27 01:13:01;;;;;;;41.20;19.17;;;4.10;99.90;;;;;;5048996;28;20236;-56
2023/11/27 01:15:30;;;;;;;40.03;19.00;;;4.10;99.90;;;;;;5045335;28;20227;-54
2023/11/27 01:17:58;;;;;;;37.00;19.63;;;4.10;99.90;;;;;;5047114;28;20587;-57
2023/11/27 01:20:27;;;;;;;30.93;16.57;;;4.10;99.90;;;;;;5042773;28;20228;-57
2023/11/27 01:22:56;;;;;;;41.27;18.37;;;4.10;99.90;;;;;;5045848;28;20247;-56
2023/11/27 01:25:24;;;;;;;40.70;18.50;;;4.10;99.90;;;;;;5042107;28;20676;-58
2023/11/27 01:27:52;;;;;;;34.67;18.00;;;4.00;99.90;;;;;;5043186;28;20209;-56
2023/11/27 01:30:20;;;;;;;40.93;19.07;;;4.00;99.90;;;;;;5045138;28;20302;-56
2023/11/27 01:32:50;;;;;;;34.57;18.30;;;4.00;99.90;;;;;;5047216;28;20228;-57
2023/11/27 01:35:20;;;;;;;30.30;17.83;;;4.00;99.90;;;;;;5047430;28;20223;-58
2023/11/27 01:37:48;;;;;;;34.93;18.03;;;4.00;99.90;;;;;;5044542;28;20224;-57
2023/11/27 01:40:16;;;;;;;39.17;18.40;;;4.00;99.90;;;;;;5047158;28;20188;-57
2023/11/27 01:42:45;;;;;;;37.00;18.97;;;4.00;99.90;;;;;;5045173;28;20220;-57
2023/11/27 01:45:13;;;;;;;35.80;18.53;;;3.90;99.90;;;;;;5045307;28;20233;-57
2023/11/27 01:47:41;;;;;;;38.07;17.13;;;3.90;99.90;;;;;;5045164;28;20217;-57
2023/11/27 01:50:11;;;;;;;38.57;17.93;;;4.00;99.90;;;;;;5043492;28;20649;-57
2023/11/27 01:52:41;;;;;;;33.47;17.27;;;4.00;99.90;;;;;;5044669;28;20189;-57
2023/11/27 01:55:11;;;;;;;36.43;16.93;;;3.90;99.90;;;;;;5041589;28;20314;-57
2023/11/27 01:57:40;;;;;;;36.07;17.40;;;4.00;99.90;;;;;;5043006;28;20702;-56
2023/11/27 02:00:11;;;;;;;37.67;17.83;;;3.90;99.90;;;;;;5046885;28;20236;-57
2023/11/27 02:02:43;;;;;;;35.50;16.30;;;3.90;99.90;;;;;;5041411;28;20221;-55
2023/11/27 02:05:13;;;;;;;37.43;16.70;;;3.90;99.90;;;;;;5045197;28;20213;-57
2023/11/27 02:07:42;;;;;;;30.97;16.10;;;3.90;99.90;;;;;;5049642;28;20184;-57
2023/11/27 02:10:11;;;;;;;34.47;16.37;;;3.90;99.90;;;;;;5043402;28;20224;-57
2023/11/27 02:12:40;;;;;;;36.33;17.27;;;3.90;99.90;;;;;;5043566;28;20552;-57
2023/11/27 02:15:10;;;;;;;33.97;16.97;;;3.90;99.90;;;;;;5046076;28;20257;-56
2023/11/27 02:17:39;;;;;;;45.33;18.33;;;3.90;99.90;;;;;;5042225;28;20636;-56
2023/11/27 02:20:09;;;;;;;32.20;16.17;;;3.90;99.90;;;;;;5047014;28;20246;-57
2023/11/27 02:22:38;;;;;;;31.00;16.47;;;3.90;99.90;;;;;;5047819;28;20604;-55
2023/11/27 02:25:09;;;;;;;41.53;17.33;;;3.90;99.90;;;;;;5043933;28;20284;-58
2023/11/27 02:27:38;;;;;;;31.47;17.73;;;4.00;99.90;;;;;;5045001;28;20243;-57
2023/11/27 02:30:08;;;;;;;28.50;16.13;;;4.00;99.90;;;;;;5042900;28;20213;-58
2023/11/27 02:32:36;;;;;;;36.87;17.67;;;4.00;99.90;;;;;;5043483;28;20225;-57
2023/11/27 02:35:05;;;;;;;36.20;17.70;;;4.00;99.90;;;;;;5038893;28;20201;-57
2023/11/27 02:37:33;;;;;;;34.23;17.27;;;4.00;99.90;;;;;;5044425;28;20213;-55
2023/11/27 02:40:02;;;;;;;33.37;17.47;;;4.00;99.90;;;;;;5042687;28;20216;-58
2023/11/27 02:42:32;;;;;;;42.63;18.43;;;4.10;99.90;;;;;;5041689;28;20229;-59
2023/11/27 02:45:00;;;;;;;31.70;17.03;;;4.00;99.90;;;;;;5046239;28;20216;-57
2023/11/27 02:47:28;;;;;;;36.33;18.63;;;4.00;99.90;;;;;;5045679;28;20212;-56
2023/11/27 02:49:56;;;;;;;33.53;18.67;;;4.10;99.90;;;;;;5051172;28;20283;-57
2023/11/27 02:52:24;;;;;;;28.67;17.47;;;4.10;99.90;;;;;;5046193;28;20196;-58
2023/11/27 02:54:55;;;;;;;37.63;18.00;;;4.10;99.90;;;;;;5052576;28;20222;-57
2023/11/27 02:57:24;;;;;;;32.80;18.53;;;4.10;99.90;;;;;;5046449;28;20221;-57
2023/11/27 02:59:53;;;;;;;33.07;18.30;;;4.10;99.90;;;;;;5041564;28;20217;-56
2023/11/27 03:02:22;;;;;;;34.17;18.80;;;4.10;99.90;;;;;;5048605;28;20221;-57
2023/11/27 03:04:51;;;;;;;33.50;18.33;;;4.10;99.90;;;;;;5049007;28;20682;-56
2023/11/27 03:07:19;;;;;;;34.77;17.87;;;4.20;99.90;;;;;;5047210;28;20561;-57
2023/11/27 03:09:48;;;;;;;32.70;18.87;;;4.20;99.90;;;;;;5050808;28;20213;-57
2023/11/27 03:12:16;;;;;;;32.97;18.33;;;4.20;99.90;;;;;;5052310;28;20231;-57
2023/11/27 03:14:45;;;;;;;33.90;17.73;;;4.20;99.90;;;;;;5046605;28;20686;-54
2023/11/27 03:17:14;;;;;;;38.00;19.23;;;4.30;99.90;;;;;;5050713;28;20278;-57
2023/11/27 03:19:43;;;;;;;39.93;18.77;;;4.30;99.90;;;;;;5050226;28;20270;-54
2023/11/27 03:22:15;;;;;;;30.87;17.60;;;4.30;99.90;;;;;;5046522;28;20216;-57
2023/11/27 03:24:44;;;;;;;39.17;18.87;;;4.30;99.90;;;;;;5051542;28;20228;-56
2023/11/27 03:27:12;;;;;;;32.80;15.97;;;4.30;99.90;;;;;;5048360;28;20266;-55
2023/11/27 03:29:40;;;;;;;35.60;19.27;;;4.40;99.90;;;;;;5049052;28;20216;-54
2023/11/27 03:32:09;;;;;;;34.07;18.43;;;4.40;99.90;;;;;;5052424;28;20221;-55
2023/11/27 03:34:39;;;;;;;34.17;17.60;;;4.40;99.90;;;;;;5046609;28;20218;-54
2023/11/27 03:37:07;;;;;;;36.57;18.27;;;4.40;99.90;;;;;;5045714;28;20285;-56
2023/11/27 03:39:36;;;;;;;35.10;18.00;;;4.40;99.90;;;;;;5049900;28;20568;-56
2023/11/27 03:42:05;;;;;;;30.33;17.93;;;4.40;99.90;;;;;;5050481;28;20220;-55
2023/11/27 03:44:33;;;;;;;31.17;17.20;;;4.40;99.90;;;;;;5048618;28;20216;-55
2023/11/27 03:47:01;;;;;;;33.73;17.23;;;4.40;99.90;;;;;;5049738;28;20594;-54
2023/11/27 03:49:29;;;;;;;30.47;16.90;;;4.40;99.90;;;;;;5068398;28;20201;-55
2023/11/27 03:52:01;;;;;;;35.00;16.60;;;4.50;99.90;;;;;;5052131;28;20224;-57
2023/11/27 03:54:29;;;;;;;34.37;17.47;;;4.50;99.90;;;;;;5042033;28;20245;-56
2023/11/27 03:56:57;;;;;;;31.03;17.27;;;4.50;99.90;;;;;;5045493;28;20304;-56
2023/11/27 03:59:26;;;;;;;32.07;17.17;;;4.50;99.90;;;;;;5042760;28;20213;-56
2023/11/27 04:01:54;;;;;;;32.57;17.30;;;4.50;99.90;;;;;;5043915;28;20199;-57
2023/11/27 04:04:22;;;;;;;33.83;16.87;;;4.50;99.90;;;;;;5045723;28;20205;-56
2023/11/27 04:06:50;;;;;;;32.90;17.77;;;4.50;99.90;;;;;;5048753;28;20236;-56
2023/11/27 04:09:20;;;;;;;41.97;18.63;;;4.50;99.90;;;;;;5046501;28;20221;-57
2023/11/27 04:11:50;;;;;;;34.37;18.33;;;4.50;99.90;;;;;;5042400;28;20210;-54
2023/11/27 04:14:18;;;;;;;34.43;17.77;;;4.50;99.90;;;;;;5049335;28;20307;-56
2023/11/27 04:16:46;;;;;;;33.03;16.30;;;4.50;99.90;;;;;;5040221;28;20206;-54
2023/11/27 04:19:14;;;;;;;35.33;17.83;;;4.50;99.90;;;;;;5045065;28;20223;-53
2023/11/27 04:21:43;;;;;;;34.57;17.77;;;4.50;99.90;;;;;;5044805;28;20229;-54
2023/11/27 04:24:11;;;;;;;35.83;16.93;;;4.50;99.90;;;;;;5047025;28;20236;-56
2023/11/27 04:26:41;;;;;;;27.87;16.40;;;4.50;99.90;;;;;;5043872;28;20213;-55
2023/11/27 04:29:09;;;;;;;32.67;17.10;;;4.50;99.90;;;;;;5048580;28;20567;-56
2023/11/27 04:31:37;;;;;;;39.93;17.87;;;4.50;99.90;;;;;;5048254;28;20185;-56
2023/11/27 04:34:05;;;;;;;31.03;17.53;;;4.50;99.90;;;;;;5046284;28;20564;-54
2023/11/27 04:36:34;;;;;;;34.77;17.80;;;4.50;99.90;;;;;;5039749;28;20240;-52
2023/11/27 04:39:03;;;;;;;30.17;16.60;;;4.50;99.90;;;;;;5040384;28;20224;-55
2023/11/27 04:41:31;;;;;;;31.90;17.73;;;4.60;99.90;;;;;;5046027;28;20223;-55
2023/11/27 04:44:01;;;;;;;37.90;17.07;;;4.60;99.90;;;;;;5041445;28;20272;-55
2023/11/27 04:46:29;;;;;;;33.17;16.57;;;4.60;99.90;;;;;;5047421;28;20193;-56
2023/11/27 04:48:57;;;;;;;36.87;17.50;;;4.60;99.90;;;;;;5045943;28;20213;-56
2023/11/27 04:51:26;;;;;;;30.03;16.63;;;4.60;99.90;;;;;;5044723;28;21177;-54
2023/11/27 04:53:54;;;;;;;34.50;16.70;;;4.60;99.90;;;;;;5045705;28;20239;-52
2023/11/27 04:56:22;;;;;;;29.23;17.13;;;4.60;99.90;;;;;;5043468;28;20858;-54
2023/11/27 04:58:50;;;;;;;37.93;18.00;;;4.60;99.90;;;;;;5040641;28;21263;-56
2023/11/27 05:01:20;;;;;;;33.87;17.03;;;4.70;99.90;;;;;;5040484;28;20580;-55
2023/11/27 05:03:48;;;;;;;37.87;17.13;;;4.70;99.90;;;;;;5040930;28;20225;-56
2023/11/27 05:06:17;;;;;;;37.83;17.77;;;4.70;99.90;;;;;;5046337;28;20265;-56
2023/11/27 05:08:45;;;;;;;32.03;17.67;;;4.70;99.90;;;;;;5039819;28;20213;-54
2023/11/27 05:11:20;;;;;;;33.10;17.13;;;4.70;99.90;;;;;;5044720;28;20231;-55
2023/11/27 05:13:49;;;;;;;29.03;16.50;;;4.70;99.90;;;;;;5043672;28;20197;-55
2023/11/27 05:16:18;;;;;;;34.27;17.53;;;4.70;99.90;;;;;;5041974;28;20201;-54
2023/11/27 05:18:47;;;;;;;33.97;17.13;;;4.70;99.90;;;;;;5045800;28;20227;-55
2023/11/27 05:21:16;;;;;;;33.10;17.00;;;4.70;99.90;;;;;;5044502;28;20225;-53
2023/11/27 05:23:44;;;;;;;31.83;16.13;;;4.70;99.90;;;;;;5046224;28;20247;-55
2023/11/27 05:26:13;;;;;;;32.70;17.27;;;4.70;99.90;;;;;;5043132;28;20235;-54
2023/11/27 05:28:41;;;;;;;33.13;16.90;;;4.70;99.90;;;;;;5046246;28;20196;-54
2023/11/27 05:31:10;;;;;;;35.00;18.43;;;4.70;99.90;;;;;;5048369;28;20688;-52
2023/11/27 05:33:38;;;;;;;29.00;16.23;;;4.70;99.90;;;;;;5046207;28;20212;-55
2023/11/27 05:36:09;;;;;;;32.60;18.13;;;4.70;99.90;;;;;;5048786;28;20231;-54
2023/11/27 05:38:38;;;;;;;32.27;17.03;;;4.70;99.90;;;;;;5045535;28;20224;-56
2023/11/27 05:41:11;;;;;;;36.50;16.97;;;4.80;99.90;;;;;;5044675;28;20216;-55
2023/11/27 05:43:39;;;;;;;31.43;17.00;;;4.80;99.90;;;;;;5048375;28;20220;-53
2023/11/27 05:46:09;;;;;;;33.93;16.77;;;4.80;99.90;;;;;;5038890;28;20745;-55
2023/11/27 05:48:38;;;;;;;27.60;15.57;;;4.80;99.90;;;;;;5046180;28;20616;-55
2023/11/27 05:51:08;;;;;;;33.97;16.57;;;4.90;99.90;;;;;;5044034;28;20217;-55
2023/11/27 05:53:37;;;;;;;26.93;16.07;;;4.90;99.90;;;;;;5043385;28;20620;-54
2023/11/27 05:56:06;;;;;;;32.50;15.93;;;4.90;99.90;;;;;;5045681;28;20232;-55
2023/11/27 05:58:35;;;;;;;24.37;15.93;;;4.80;99.90;;;;;;5044781;28;20193;-55
2023/11/27 06:01:03;;;;;;;29.73;15.80;;;4.80;99.90;;;;;;5044137;28;20220;-54
2023/11/27 06:03:33;;;;;;;27.20;14.73;;;4.80;99.90;;;;;;5044300;28;20221;-53
2023/11/27 06:06:01;;;;;;;34.00;16.20;;;4.80;99.90;;;;;;5039275;28;20271;-56
2023/11/27 06:08:31;;;;;;;30.20;14.97;;;4.80;99.90;;;;;;5045884;28;20220;-55
2023/11/27 06:11:03;;;;;;;28.43;14.90;;;4.90;99.90;;;;;;5042718;28;20219;-54
2023/11/27 06:13:32;;;;;;;30.67;13.80;;;4.90;99.90;;;;;;5047619;28;20216;-56
2023/11/27 06:16:00;;;;;;;26.47;15.03;;;4.90;99.90;;;;;;5041513;28;20279;-55
2023/11/27 06:18:28;;;;;;;27.03;15.07;;;4.90;99.90;;;;;;5042196;28;20307;-55
2023/11/27 06:20:56;;;;;;;23.23;14.93;;;4.90;99.90;;;;;;5043106;28;20239;-54
2023/11/27 06:23:24;;;;;;;25.77;13.60;;;4.90;99.90;;;;;;5044245;28;20236;-56
2023/11/27 06:25:54;;;;;;;23.40;13.20;;;4.90;99.90;;;;;;5037081;28;20213;-56
2023/11/27 06:28:22;;;;;;;26.83;14.07;;;5.00;99.90;;;;;;5039615;28;20185;-53
2023/11/27 06:30:51;;;;;;;24.57;14.37;;;5.00;99.90;;;;;;5045311;28;20311;-57
2023/11/27 06:33:20;;;;;;;24.63;14.27;;;5.00;99.90;;;;;;5044071;28;20223;-55
2023/11/27 06:35:51;;;;;;;20.53;13.93;;;5.00;99.90;;;;;;5044742;28;20216;-56
2023/11/27 06:38:19;;;;;;;29.20;14.97;;;5.00;99.90;;;;;;5045038;28;20303;-57
2023/11/27 06:40:48;;;;;;;27.73;14.83;;;5.00;99.90;;;;;;5043587;28;20211;-55
2023/11/27 06:43:18;;;;;;;26.53;14.53;;;5.00;99.90;;;;;;5042156;28;20231;-54
2023/11/27 06:45:47;;;;;;;27.87;14.40;;;5.00;99.90;;;;;;5040792;28;20225;-57
2023/11/27 06:48:16;;;;;;;21.87;14.37;;;5.00;99.90;;;;;;5049406;28;20220;-56
2023/11/27 06:50:44;;;;;;;23.27;13.57;;;5.00;99.90;;;;;;5044140;28;20311;-53
2023/11/27 06:53:13;;;;;;;20.53;13.53;;;5.00;99.90;;;;;;5040293;28;20904;-57
2023/11/27 06:55:41;;;;;;;24.97;13.73;;;5.10;99.90;;;;;;5042674;28;20532;-54
2023/11/27 06:58:09;;;;;;;26.70;14.70;;;5.00;99.90;;;;;;5044599;28;20215;-55
2023/11/27 07:00:39;;;;;;;23.80;14.13;;;5.00;99.90;;;;;;5047648;28;20212;-56
2023/11/27 07:03:07;;;;;;;26.70;14.23;;;5.10;99.90;;;;;;5043480;28;20220;-57
2023/11/27 07:05:36;;;;;;;22.57;13.93;;;5.10;99.90;;;;;;5048834;28;20244;-56
2023/11/27 07:08:04;;;;;;;24.53;13.57;;;5.10;99.90;;;;;;5042190;28;20189;-55
2023/11/27 07:10:32;;;;;;;23.10;13.17;;;5.10;99.90;;;;;;5035655;28;20185;-56
2023/11/27 07:13:01;;;;;;;22.83;12.47;;;5.10;99.90;;;;;;5045323;28;20715;-57
2023/11/27 07:15:29;;;;;;;17.30;11.73;;;5.10;99.90;;;;;;5044283;28;20217;-58
2023/11/27 07:18:01;;;;;;;23.17;13.00;;;5.10;99.90;;;;;;5042539;28;20232;-53
2023/11/27 07:20:45;;;;;;;21.27;11.97;;;5.10;99.90;;;;;;5045086;28;20599;-55
2023/11/27 07:23:14;;;;;;;19.93;11.53;;;5.20;99.90;;;;;;5047062;28;20712;-54
2023/11/27 07:25:43;;;;;;;22.13;12.50;;;5.20;99.90;;;;;;5038208;28;20259;-55
2023/11/27 07:28:12;;;;;;;24.57;12.30;;;5.20;99.90;;;;;;5044332;28;20311;-55
2023/11/27 07:30:40;;;;;;;16.90;12.07;;;5.20;99.90;;;;;;5046780;28;20217;-55
2023/11/27 07:33:10;;;;;;;18.60;12.10;;;5.20;99.90;;;;;;5044819;28;21775;-56
2023/11/27 07:35:39;;;;;;;18.63;11.50;;;5.20;99.90;;;;;;5042292;28;20616;-54
2023/11/27 07:38:07;;;;;;;19.27;11.80;;;5.20;99.90;;;;;;5045130;28;20236;-54
2023/11/27 07:40:36;;;;;;;18.47;12.20;;;5.20;99.90;;;;;;5050036;28;20240;-56
2023/11/27 07:43:10;;;;;;;19.17;12.53;;;5.30;99.90;;;;;;5044769;28;20637;-55
2023/11/27 07:45:39;;;;;;;20.17;12.40;;;5.20;99.90;;;;;;5039012;28;20216;-57
2023/11/27 07:48:08;;;;;;;17.73;11.50;;;5.20;99.90;;;;;;5047762;28;20221;-56
2023/11/27 07:50:37;;;;;;;15.97;11.80;;;5.20;99.90;;;;;;5046042;28;20221;-52
2023/11/27 07:53:07;;;;;;;19.07;12.07;;;5.30;99.90;;;;;;5047876;28;20317;-53
2023/11/27 07:55:36;;;;;;;19.87;12.10;;;5.30;99.90;;;;;;5048421;28;20197;-57
2023/11/27 07:58:05;;;;;;;20.50;12.23;;;5.30;99.90;;;;;;5045326;28;20232;-53
2023/11/27 08:00:34;;;;;;;17.83;12.43;;;5.30;99.90;;;;;;5048604;28;20224;-56
2023/11/27 08:03:02;;;;;;;21.00;12.27;;;5.30;99.90;;;;;;5043953;28;20213;-57
2023/11/27 08:05:30;;;;;;;17.57;11.63;;;5.30;99.90;;;;;;5045521;28;20707;-56
2023/11/27 08:08:00;;;;;;;20.80;12.50;;;5.30;99.90;;;;;;5051919;28;20188;-56
2023/11/27 08:10:29;;;;;;;19.33;12.07;;;5.30;99.90;;;;;;5047148;28;20201;-57
2023/11/27 08:12:57;;;;;;;25.77;13.07;;;5.40;99.90;;;;;;5042728;28;20854;-58
2023/11/27 08:15:26;;;;;;;19.83;12.93;;;5.40;99.90;;;;;;5045893;28;20639;-56
2023/11/27 08:17:55;;;;;;;19.27;12.50;;;5.40;99.90;;;;;;5043886;28;20224;-54
2023/11/27 08:20:28;;;;;;;22.10;12.70;;;5.40;99.90;;;;;;5055365;28;20315;-56
2023/11/27 08:22:58;;;;;;;21.90;12.30;;;5.40;99.90;;;;;;5052411;28;20196;-56
2023/11/27 08:25:29;;;;;;;20.63;12.77;;;5.40;99.90;;;;;;5042383;28;20222;-54
2023/11/27 08:27:57;;;;;;;17.83;11.87;;;5.40;99.90;;;;;;5037781;28;20218;-55
2023/11/27 08:30:29;;;;;;;21.27;12.10;;;5.40;99.90;;;;;;5042129;28;20220;-57
2023/11/27 08:32:58;;;;;;;20.13;12.50;;;5.40;99.90;;;;;;5047166;28;20224;-54
2023/11/27 08:35:27;;;;;;;17.50;12.03;;;5.50;99.90;;;;;;5046631;28;20228;-57
2023/11/27 08:37:58;;;;;;;16.63;12.20;;;5.50;99.90;;;;;;5043160;28;20217;-53
2023/11/27 08:40:28;;;;;;;17.93;10.57;;;5.50;99.90;;;;;;5047919;28;20793;-53
2023/11/27 08:42:56;;;;;;;15.93;11.63;;;5.50;99.90;;;;;;5042258;28;20225;-56
2023/11/27 08:45:25;;;;;;;14.97;11.00;;;5.50;99.90;;;;;;5048895;28;20266;-57
2023/11/27 08:47:55;;;;;;;17.17;11.20;;;5.50;99.90;;;;;;5047265;28;20227;-57
2023/11/27 08:50:27;;;;;;;14.13;10.60;;;5.50;99.90;;;;;;5041586;28;20271;-56
2023/11/27 08:52:57;;;;;;;16.17;10.13;;;5.50;99.90;;;;;;5047508;28;20197;-54
2023/11/27 08:55:30;;;;;;;16.17;10.37;;;5.50;99.90;;;;;;5048139;28;20216;-58
2023/11/27 08:58:03;;;;;;;16.30;10.37;;;5.50;99.90;;;;;;5046248;28;20240;-57
2023/11/27 09:00:31;;;;;;;17.63;11.67;;;5.50;99.90;;;;;;5047221;28;20226;-56
2023/11/27 09:03:01;;;;;;;17.00;11.57;;;5.50;99.90;;;;;;5047860;28;20225;-56
2023/11/27 09:05:31;;;;;;;16.93;11.97;;;5.50;99.90;;;;;;5041272;28;20220;-56
2023/11/27 09:08:05;;;;;;;12.50;9.83;;;5.50;99.90;;;;;;5045959;28;20219;-57
2023/11/27 09:10:37;;;;;;;17.07;11.00;;;5.60;99.90;;;;;;5048478;28;20263;-57
2023/11/27 09:13:06;;;;;;;14.47;10.10;;;5.60;99.90;;;;;;5043068;28;20232;-57
2023/11/27 09:15:35;;;;;;;16.23;10.10;;;5.60;99.90;;;;;;5045377;28;20213;-56
2023/11/27 09:18:04;;;;;;;13.53;9.27;;;5.60;99.90;;;;;;5048968;28;20633;-57
2023/11/27 09:20:34;;;;;;;14.43;9.20;;;5.60;99.90;;;;;;5048748;28;20275;-57
2023/11/27 09:23:03;;;;;;;13.87;10.10;;;5.60;99.90;;;;;;5043190;28;20188;-56
2023/11/27 09:25:31;;;;;;;13.47;9.67;;;5.60;99.90;;;;;;5046535;28;20220;-56
2023/11/27 09:28:01;;;;;;;14.23;9.60;;;5.70;99.90;;;;;;5048183;28;20221;-57
2023/11/27 09:30:29;;;;;;;15.13;9.00;;;5.70;99.90;;;;;;5050316;28;20244;-56
2023/11/27 09:32:57;;;;;;;11.33;8.97;;;5.70;99.90;;;;;;5051027;28;20228;-55
2023/11/27 09:35:25;;;;;;;9.97;8.30;;;5.70;99.90;;;;;;5041979;28;20303;-57
2023/11/27 09:37:53;;;;;;;9.93;8.10;;;5.70;99.90;;;;;;5047837;28;20181;-57
2023/11/27 09:40:22;;;;;;;8.67;7.77;;;5.70;99.90;;;;;;5043464;28;20201;-56
2023/11/27 09:42:50;;;;;;;10.40;8.03;;;5.80;99.90;;;;;;5045310;28;20230;-57
2023/11/27 09:45:20;;;;;;;10.37;8.50;;;5.80;99.90;;;;;;5048313;28;20288;-57
2023/11/27 09:47:50;;;;;;;11.17;8.07;;;5.80;99.90;;;;;;5047529;28;20338;-56
2023/11/27 09:50:21;;;;;;;8.97;7.50;;;5.80;99.90;;;;;;5043081;28;20251;-57
2023/11/27 09:53:00;;;;;;;8.63;7.73;;;5.80;99.90;;;;;;5040335;28;20594;-57
2023/11/27 09:55:31;;;;;;;8.47;7.30;;;5.80;99.90;;;;;;5048627;28;20729;-57
2023/11/27 09:58:01;;;;;;;9.17;7.90;;;5.80;99.90;;;;;;5044491;28;20274;-57
2023/11/27 10:00:31;;;;;;;9.73;8.07;;;5.80;99.90;;;;;;5040355;28;20316;-57
2023/11/27 10:03:00;;;;;;;11.93;8.20;;;5.80;99.90;;;;;;5042780;28;20229;-55
2023/11/27 10:05:29;;;;;;;15.03;8.10;;;5.90;99.90;;;;;;5040780;28;20225;-57
2023/11/27 10:07:58;;;;;;;10.50;8.13;;;5.90;99.90;;;;;;5046625;28;20204;-57
2023/11/27 10:10:29;;;;;;;11.53;7.90;;;5.90;99.90;;;;;;5040561;28;20285;-57
2023/11/27 10:12:59;;;;;;;9.77;8.13;;;6.00;99.90;;;;;;5040432;28;20221;-57
2023/11/27 10:15:36;;;;;;;8.93;7.97;;;6.00;99.90;;;;;;5044404;28;20694;-58
2023/11/27 10:18:08;;;;;;;10.43;7.53;;;6.00;99.90;;;;;;5046131;28;20231;-58
2023/11/27 10:20:41;;;;;;;8.20;7.37;;;6.00;99.90;;;;;;5047598;28;20703;-58
2023/11/27 10:23:11;;;;;;;9.50;7.80;;;6.10;99.90;;;;;;5044487;28;20303;-57
2023/11/27 10:25:40;;;;;;;9.03;7.93;;;6.10;99.90;;;;;;5040756;28;20213;-58
2023/11/27 10:28:09;;;;;;;9.20;7.90;;;6.10;99.90;;;;;;5041518;28;20224;-57
2023/11/27 10:30:40;;;;;;;8.67;7.67;;;6.10;99.90;;;;;;5043753;28;20217;-56
2023/11/27 10:33:10;;;;;;;8.00;7.20;;;6.10;99.90;;;;;;5044422;28;20216;-56
2023/11/27 10:35:41;;;;;;;9.50;8.07;;;6.10;99.90;;;;;;5044911;28;20220;-57
2023/11/27 10:38:16;;;;;;;9.73;7.83;;;6.20;99.90;;;;;;5044318;28;20231;-56
2023/11/27 10:40:46;;;;;;;14.10;8.73;;;6.20;99.90;;;;;;5038803;28;20200;-54
2023/11/27 10:43:16;;;;;;;8.43;7.13;;;6.20;99.90;;;;;;5038021;28;20223;-55
2023/11/27 10:45:47;;;;;;;11.47;8.27;;;6.30;99.90;;;;;;5044445;28;20228;-58
2023/11/27 10:48:17;;;;;;;10.03;7.73;;;6.30;99.90;;;;;;5043131;28;20576;-56
2023/11/27 10:50:53;;;;;;;9.87;8.10;;;6.30;99.90;;;;;;5040196;28;20209;-57
2023/11/27 10:53:22;;;;;;;12.50;7.67;;;6.30;99.90;;;;;;5048447;28;20231;-57
2023/11/27 10:55:53;;;;;;;10.03;7.83;;;6.30;99.90;;;;;;5047343;28;20188;-56
2023/11/27 10:58:23;;;;;;;8.27;7.47;;;6.20;99.90;;;;;;5040345;28;20194;-55
2023/11/27 11:00:57;;;;;;;9.50;7.57;;;6.30;99.90;;;;;;5046589;28;20239;-53
2023/11/27 11:03:30;;;;;;;9.20;7.27;;;6.40;99.90;;;;;;5039408;28;20631;-58
2023/11/27 11:06:01;;;;;;;10.57;7.63;;;6.40;99.90;;;;;;5045924;28;20219;-58
2023/11/27 11:08:32;;;;;;;10.37;7.93;;;6.40;99.90;;;;;;5041723;28;20982;-55
2023/11/27 11:11:05;;;;;;;8.50;7.40;;;6.40;99.90;;;;;;5039277;28;20193;-56
2023/11/27 11:13:35;;;;;;;8.03;7.23;;;6.30;99.90;;;;;;5051926;28;20291;-57
2023/11/27 11:16:14;;;;;;;9.63;7.50;;;6.40;99.90;;;;;;5044308;28;20941;-57
2023/11/27 11:18:51;;;;;;;14.07;8.40;;;6.40;99.90;;;;;;5052126;28;20276;-57
2023/11/27 11:21:40;;;;;;;11.47;7.80;;;6.40;99.90;;;;;;5054959;28;20724;-57
2023/11/27 11:24:18;;;;;;;8.90;8.00;;;6.40;99.90;;;;;;5045507;28;20235;-56
2023/11/27 11:27:01;;;;;;;8.37;7.43;;;6.40;99.90;;;;;;5047153;28;20228;-55
2023/11/27 11:29:33;;;;;;;12.30;8.00;;;6.40;99.90;;;;;;5051179;28;20223;-57
2023/11/27 11:32:04;;;;;;;10.33;8.27;;;6.40;99.90;;;;;;5040901;28;20548;-57
2023/11/27 11:34:39;;;;;;;12.00;7.70;;;6.40;99.90;;;;;;5051180;28;20585;-57
2023/11/27 11:37:11;;;;;;;8.37;7.57;;;6.40;99.90;;;;;;5048812;28;20283;-58
2023/11/27 11:39:45;;;;;;;8.87;7.83;;;6.40;99.90;;;;;;5046258;28;20281;-58
2023/11/27 11:42:17;;;;;;;9.27;7.53;;;6.50;99.90;;;;;;5041581;28;20229;-56
2023/11/27 11:45:05;;;;;;;8.73;7.60;;;6.50;99.90;;;;;;5043832;28;20213;-57
2023/11/27 11:47:39;;;;;;;8.47;7.37;;;6.50;99.90;;;;;;5047385;28;20220;-58
2023/11/27 11:50:28;;;;;;;8.93;6.90;;;6.50;99.90;;;;;;5045112;28;20308;-57
2023/11/27 11:52:58;;;;;;;8.20;7.10;;;6.50;99.90;;;;;;5051174;28;20185;-58
2023/11/27 11:55:30;;;;;;;8.10;6.97;;;6.60;99.90;;;;;;5043099;28;20193;-58
2023/11/27 11:58:03;;;;;;;7.37;6.67;;;6.60;99.90;;;;;;5051289;28;20246;-58
2023/11/27 12:00:43;;;;;;;7.40;6.63;;;6.60;99.90;;;;;;5048058;28;20286;-57
2023/11/27 12:03:19;;;;;;;7.33;6.63;;;6.60;99.90;;;;;;5045478;28;20316;-56
2023/11/27 12:05:54;;;;;;;9.23;7.00;;;6.60;99.90;;;;;;5049047;28;20253;-58
2023/11/27 12:08:24;;;;;;;7.10;6.50;;;6.60;99.90;;;;;;5043772;28;20304;-57
2023/11/27 12:10:53;;;;;;;7.07;6.37;;;6.60;99.90;;;;;;5044958;28;20185;-59
2023/11/27 12:13:23;;;;;;;8.50;6.90;;;6.60;99.90;;;;;;5049571;28;20195;-57
2023/11/27 12:15:56;;;;;;;7.63;6.83;;;6.70;99.90;;;;;;5052952;28;20220;-55
2023/11/27 12:18:26;;;;;;;7.83;7.03;;;6.70;99.90;;;;;;5049559;28;20279;-58
2023/11/27 12:20:56;;;;;;;7.60;6.80;;;6.70;99.90;;;;;;5048682;28;20217;-58
2023/11/27 12:23:24;;;;;;;8.97;7.50;;;6.70;99.90;;;;;;5047783;28;20312;-56
2023/11/27 12:25:53;;;;;;;8.13;7.13;;;6.70;99.90;;;;;;5046506;28;20631;-57
2023/11/27 12:28:21;;;;;;;9.30;7.03;;;6.70;99.90;;;;;;5047635;28;20194;-55
2023/11/27 12:30:50;;;;;;;8.07;7.27;;;6.80;99.90;;;;;;5046297;28;20749;-57
2023/11/27 12:33:19;;;;;;;9.30;7.97;;;6.70;99.90;;;;;;5042872;28;20212;-56
2023/11/27 12:35:51;;;;;;;8.30;7.43;;;6.70;99.90;;;;;;5048857;28;20247;-57
2023/11/27 12:38:20;;;;;;;8.47;7.57;;;6.70;99.90;;;;;;5044613;28;20223;-55
2023/11/27 12:40:48;;;;;;;9.90;7.63;;;6.80;99.90;;;;;;5042512;28;20196;-56
2023/11/27 12:43:18;;;;;;;8.50;7.67;;;6.80;99.90;;;;;;5049311;28;20214;-58
2023/11/27 12:45:57;;;;;;;9.07;8.03;;;6.80;99.90;;;;;;5046281;28;20721;-58
2023/11/27 12:48:26;;;;;;;9.73;8.27;;;6.80;99.90;;;;;;5043761;28;20255;-58
2023/11/27 12:50:57;;;;;;;9.07;8.17;;;6.80;99.90;;;;;;5046050;28;20575;-57
2023/11/27 12:53:25;;;;;;;10.80;8.80;;;6.80;99.90;;;;;;5044869;28;20291;-57